Time;durP1;ratioP1;P1;durP2;ratioP2;P2;SDS_P1;SDS_P2;PMS_P1;PMS_P2;Temp;Humidity;BMP_temperature;BMP_pressure;BME280_temperature;BME280_humidity;BME280_pressure;Samples;Min_cycle;Max_cycle;Signal;HPM_P1;HPM_P2
2022/11/06 00:00:33;;;;;;;22.60;19.10;;;;;20.80;100510.00;;;;2083736;28;20693;-69
2022/11/06 00:01:33;;;;;;;22.40;19.03;;;;;20.80;100494.00;;;;2084100;28;20252;-69
2022/11/06 00:02:34;;;;;;;22.03;18.47;;;;;20.80;100487.00;;;;2083861;28;20727;-69
2022/11/06 00:03:34;;;;;;;22.10;17.60;;;;;20.80;100499.00;;;;2083664;28;20688;-69
2022/11/06 00:04:35;;;;;;;21.30;17.87;;;;;20.80;100489.00;;;;2082814;28;20243;-69
2022/11/06 00:06:57;;;;;;;21.42;16.70;;;;;20.80;100493.00;;;;2083270;28;20216;-69
2022/11/06 00:07:57;;;;;;;19.93;16.70;;;;;20.80;100483.00;;;;2082575;28;20592;-69
2022/11/06 00:08:58;;;;;;;22.67;17.40;;;;;20.80;100493.00;;;;2082894;28;20585;-69
2022/11/06 00:09:58;;;;;;;21.97;17.37;;;;;20.80;100481.00;;;;2083483;28;20755;-69
2022/11/06 00:10:59;;;;;;;20.67;16.53;;;;;20.80;100498.00;;;;2084135;28;20479;-69
2022/11/06 00:11:59;;;;;;;18.90;16.17;;;;;20.80;100483.00;;;;2083797;28;20220;-69
2022/11/06 00:13:00;;;;;;;22.33;17.57;;;;;20.80;100486.00;;;;2084025;28;20240;-69
2022/11/06 00:14:00;;;;;;;19.73;16.33;;;;;20.80;100483.00;;;;2083824;28;20213;-69
2022/11/06 00:15:00;;;;;;;20.50;15.93;;;;;20.80;100475.00;;;;2077008;28;20281;-69
2022/11/06 00:16:03;;;;;;;19.77;15.70;;;;;20.70;100495.00;;;;2081328;28;20226;-67
2022/11/06 00:17:03;;;;;;;17.75;15.65;;;;;20.70;100494.00;;;;2082336;28;20213;-69
2022/11/06 00:18:03;;;;;;;18.13;15.20;;;;;20.70;100494.00;;;;2081426;28;20227;-69
2022/11/06 00:19:04;;;;;;;17.80;14.60;;;;;20.70;100495.00;;;;2083701;28;20205;-69
2022/11/06 00:20:05;;;;;;;16.20;14.03;;;;;20.70;100491.00;;;;2083504;28;20216;-69
2022/11/06 00:21:10;;;;;;;18.00;15.00;;;;;20.70;100491.00;;;;2082707;28;20459;-69
2022/11/06 00:22:11;;;;;;;16.23;13.48;;;;;20.80;100491.00;;;;2080798;28;20475;-69
2022/11/06 00:23:11;;;;;;;17.43;14.50;;;;;20.70;100497.00;;;;2082038;28;20232;-69
2022/11/06 00:24:12;;;;;;;16.50;13.87;;;;;20.70;100494.00;;;;2081840;28;20200;-70
2022/11/06 00:25:13;;;;;;;17.48;13.88;;;;;20.70;100498.00;;;;2082913;28;20206;-69
2022/11/06 00:26:15;;;;;;;16.10;13.40;;;;;20.70;100494.00;;;;2083353;28;20214;-69
2022/11/06 00:27:15;;;;;;;17.10;13.68;;;;;20.70;100488.00;;;;2084127;28;20213;-69
2022/11/06 00:28:15;;;;;;;17.23;13.27;;;;;20.70;100500.00;;;;2084129;28;20317;-69
2022/11/06 00:29:16;;;;;;;15.50;12.80;;;;;20.70;100488.00;;;;2081819;28;20216;-70
2022/11/06 00:30:19;;;;;;;19.43;14.50;;;;;20.70;100499.00;;;;2083929;28;20220;-70
2022/11/06 00:31:21;;;;;;;14.77;13.15;;;;;20.70;100492.00;;;;2086604;28;20252;-70
2022/11/06 00:32:21;;;;;;;16.60;13.32;;;;;20.70;100486.00;;;;2085400;28;20224;-69
2022/11/06 00:33:21;;;;;;;15.17;12.60;;;;;20.70;100492.00;;;;2081940;28;20266;-69
2022/11/06 00:34:22;;;;;;;13.10;11.70;;;;;20.70;100488.00;;;;2084667;28;20213;-69
2022/11/06 00:35:22;;;;;;;16.73;12.70;;;;;20.70;100491.00;;;;2084727;28;20240;-69
2022/11/06 00:36:23;;;;;;;14.47;11.17;;;;;20.70;100497.00;;;;2084522;28;20214;-69
2022/11/06 00:37:23;;;;;;;16.13;11.30;;;;;20.70;100491.00;;;;2084789;28;20221;-69
2022/11/06 00:38:23;;;;;;;15.30;11.07;;;;;20.60;100507.00;;;;2085559;28;20595;-69
2022/11/06 00:39:24;;;;;;;14.17;11.20;;;;;20.70;100492.00;;;;2084355;28;20722;-69
2022/11/06 00:40:24;;;;;;;13.53;11.13;;;;;20.70;100496.00;;;;2091694;28;20699;-69
2022/11/06 00:41:25;;;;;;;14.47;11.77;;;;;20.70;100490.00;;;;2085559;28;20562;-69
2022/11/06 00:42:25;;;;;;;11.40;10.20;;;;;20.70;100496.00;;;;2084389;28;20637;-69
2022/11/06 00:43:25;;;;;;;12.83;10.40;;;;;20.70;100488.00;;;;2084432;28;20217;-69
2022/11/06 00:44:26;;;;;;;12.00;9.83;;;;;20.70;100495.00;;;;2083860;28;20213;-70
2022/11/06 00:45:26;;;;;;;12.60;10.47;;;;;20.60;100485.00;;;;2084582;28;20581;-69
2022/11/06 00:46:26;;;;;;;13.77;10.83;;;;;20.60;100492.00;;;;2085081;28;20673;-70
2022/11/06 00:47:27;;;;;;;11.40;9.80;;;;;20.60;100491.00;;;;2085360;28;20579;-70
2022/11/06 00:48:27;;;;;;;14.23;10.90;;;;;20.60;100480.00;;;;2085501;28;20209;-70
2022/11/06 00:49:27;;;;;;;11.13;9.83;;;;;20.60;100482.00;;;;2085360;28;20224;-70
2022/11/06 00:50:28;;;;;;;12.30;10.00;;;;;20.60;100477.00;;;;2085327;28;20217;-70
2022/11/06 00:51:30;;;;;;;11.27;9.60;;;;;20.60;100479.00;;;;2083852;28;20715;-69
2022/11/06 00:52:30;;;;;;;14.27;10.25;;;;;20.60;100478.00;;;;2083442;28;20275;-69
2022/11/06 00:53:30;;;;;;;11.60;9.27;;;;;20.60;100481.00;;;;2084445;28;20721;-70
2022/11/06 00:54:31;;;;;;;10.90;8.93;;;;;20.60;100495.00;;;;2084508;28;20292;-69
2022/11/06 00:55:31;;;;;;;11.17;8.70;;;;;20.60;100486.00;;;;2085513;28;20217;-69
2022/11/06 00:56:31;;;;;;;9.63;8.63;;;;;20.60;100499.00;;;;2085385;28;20226;-70
2022/11/06 00:57:32;;;;;;;11.60;8.90;;;;;20.60;100491.00;;;;2085524;28;20229;-70
2022/11/06 00:58:32;;;;;;;10.43;8.70;;;;;20.60;100497.00;;;;2085347;28;20219;-69
2022/11/06 00:59:33;;;;;;;10.83;7.93;;;;;20.60;100485.00;;;;2084491;28;20221;-69
2022/11/06 01:00:34;;;;;;;9.60;8.07;;;;;20.60;100493.00;;;;2084480;28;20243;-69
2022/11/06 01:01:41;;;;;;;9.60;8.17;;;;;20.60;100503.00;;;;2083370;28;20539;-70
2022/11/06 01:02:44;;;;;;;10.93;8.68;;;;;20.60;100491.00;;;;2083189;28;20747;-69
2022/11/06 01:03:46;;;;;;;8.43;7.25;;;;;20.60;100484.00;;;;2067994;28;20227;-69
2022/11/06 01:04:46;;;;;;;10.07;8.00;;;;;20.60;100500.00;;;;2075688;28;20708;-69
2022/11/06 01:05:47;;;;;;;9.67;8.07;;;;;20.60;100500.00;;;;2084258;28;20249;-69
2022/11/06 01:06:48;;;;;;;10.37;8.00;;;;;20.60;100501.00;;;;2082136;28;20211;-69
2022/11/06 01:07:49;;;;;;;9.27;7.68;;;;;20.60;100502.00;;;;2075319;28;20210;-69
2022/11/06 01:08:49;;;;;;;10.43;7.80;;;;;20.60;100497.00;;;;2083505;28;20240;-69
2022/11/06 01:09:49;;;;;;;10.70;6.90;;;;;20.60;100497.00;;;;2084616;28;20217;-69
2022/11/06 01:10:50;;;;;;;7.73;6.40;;;;;20.60;100500.00;;;;2085364;28;20245;-69
2022/11/06 01:11:52;;;;;;;8.07;6.90;;;;;20.60;100500.00;;;;2084913;28;20209;-69
2022/11/06 01:12:52;;;;;;;10.45;7.55;;;;;20.60;100483.00;;;;2085254;28;20311;-69
2022/11/06 01:13:54;;;;;;;8.53;7.20;;;;;20.60;100492.00;;;;2084969;28;20209;-69
2022/11/06 01:14:54;;;;;;;9.57;7.13;;;;;20.60;100486.00;;;;2084312;28;20216;-69
2022/11/06 01:15:54;;;;;;;8.83;7.23;;;;;20.60;100485.00;;;;2084575;28;20700;-69
2022/11/06 01:16:55;;;;;;;7.10;6.20;;;;;20.60;100480.00;;;;2084328;28;20232;-69
2022/11/06 01:17:55;;;;;;;8.77;6.50;;;;;20.60;100486.00;;;;2075275;28;20214;-69
2022/11/06 01:18:56;;;;;;;8.07;6.90;;;;;20.60;100482.00;;;;2076332;28;20218;-69
2022/11/06 01:19:56;;;;;;;7.60;6.47;;;;;20.60;100486.00;;;;2085172;28;20410;-70
2022/11/06 01:20:56;;;;;;;7.97;6.40;;;;;20.60;100479.00;;;;2085303;28;20204;-69
2022/11/06 01:21:57;;;;;;;9.07;6.57;;;;;20.60;100487.00;;;;2084700;28;20273;-69
2022/11/06 01:22:57;;;;;;;8.50;7.00;;;;;20.50;100485.00;;;;2084576;28;20213;-69
2022/11/06 01:24:03;;;;;;;7.57;5.90;;;;;20.50;100479.00;;;;2084397;28;20205;-69
2022/11/06 01:25:04;;;;;;;6.90;6.20;;;;;20.50;100484.00;;;;2084370;28;20214;-69
2022/11/06 01:26:05;;;;;;;8.30;6.13;;;;;20.60;100480.00;;;;2084780;28;20585;-69
2022/11/06 01:27:05;;;;;;;7.22;5.70;;;;;20.50;100482.00;;;;2085181;28;20218;-70
2022/11/06 01:28:06;;;;;;;7.70;5.90;;;;;20.50;100475.00;;;;2085209;28;20301;-69
2022/11/06 01:29:07;;;;;;;7.60;6.40;;;;;20.60;100477.00;;;;2084672;28;20985;-70
2022/11/06 01:30:08;;;;;;;6.28;5.07;;;;;20.50;100473.00;;;;2084500;28;20698;-69
2022/11/06 01:31:12;;;;;;;6.53;5.53;;;;;20.50;100470.00;;;;2081989;28;20216;-69
2022/11/06 01:32:12;;;;;;;6.88;5.57;;;;;20.50;100467.00;;;;2084108;28;21324;-67
2022/11/06 01:33:13;;;;;;;8.20;6.20;;;;;20.50;100465.00;;;;2085265;28;20213;-67
2022/11/06 01:34:13;;;;;;;8.37;5.97;;;;;20.50;100476.00;;;;2084220;28;20270;-69
2022/11/06 01:35:13;;;;;;;6.67;5.07;;;;;20.50;100468.00;;;;2084170;28;20208;-69
2022/11/06 01:36:16;;;;;;;7.97;4.97;;;;;20.50;100470.00;;;;2084048;28;20220;-69
2022/11/06 01:37:16;;;;;;;6.30;4.97;;;;;20.50;100466.00;;;;2084315;28;20332;-69
2022/11/06 01:38:17;;;;;;;5.30;4.60;;;;;20.50;100466.00;;;;2085031;28;20244;-69
2022/11/06 01:39:17;;;;;;;7.03;5.30;;;;;20.50;100461.00;;;;2084722;28;20263;-69
2022/11/06 01:40:17;;;;;;;6.83;5.20;;;;;20.50;100459.00;;;;2089414;28;20203;-69
2022/11/06 01:41:19;;;;;;;6.10;5.20;;;;;20.50;100461.00;;;;2084974;28;20205;-69
2022/11/06 01:42:20;;;;;;;7.82;4.95;;;;;20.50;100462.00;;;;2082843;28;20299;-69
2022/11/06 01:43:21;;;;;;;7.33;4.83;;;;;20.50;100458.00;;;;2084124;28;20217;-69
2022/11/06 01:44:34;;;;;;;6.30;5.03;;;;;20.50;100452.00;;;;2084245;28;20332;-69
2022/11/06 01:45:37;;;;;;;6.07;5.00;;;;;20.50;100460.00;;;;2084243;28;20224;-69
2022/11/06 01:46:37;;;;;;;6.32;5.07;;;;;20.50;100451.00;;;;2075162;28;20221;-69
2022/11/06 01:47:37;;;;;;;6.40;5.00;;;;;20.50;100447.00;;;;2075331;28;20697;-69
2022/11/06 01:48:38;;;;;;;7.57;5.20;;;;;20.50;100448.00;;;;2084352;28;20884;-69
2022/11/06 01:49:39;;;;;;;5.77;4.60;;;;;20.50;100442.00;;;;2084312;28;20692;-69
2022/11/06 01:50:40;;;;;;;6.63;4.00;;;;;20.50;100447.00;;;;2085037;28;20471;-69
2022/11/06 01:51:46;;;;;;;5.80;4.53;;;;;20.50;100442.00;;;;2083973;28;20213;-69
2022/11/06 01:52:46;;;;;;;8.00;4.90;;;;;20.50;100438.00;;;;2083242;28;20227;-69
2022/11/06 01:53:47;;;;;;;7.03;5.53;;;;;20.50;100433.00;;;;2084119;28;20288;-69
2022/11/06 01:54:50;;;;;;;5.90;4.30;;;;;20.50;100426.00;;;;2084244;28;20201;-69
2022/11/06 01:55:52;;;;;;;6.15;4.47;;;;;20.50;100417.00;;;;2082882;28;20236;-69
2022/11/06 01:56:53;;;;;;;6.50;4.35;;;;;20.50;100428.00;;;;2068068;28;20306;-69
2022/11/06 01:57:53;;;;;;;5.10;4.07;;;;;20.50;100431.00;;;;2052010;28;20216;-69
2022/11/06 01:58:54;;;;;;;5.90;4.83;;;;;20.50;100436.00;;;;2067897;28;20262;-69
2022/11/06 01:59:54;;;;;;;6.83;4.20;;;;;20.50;100426.00;;;;2083989;28;20209;-69
2022/11/06 02:00:54;;;;;;;4.43;3.43;;;;;20.40;100433.00;;;;2075086;28;20247;-69
2022/11/06 02:01:55;;;;;;;4.50;3.93;;;;;20.40;100429.00;;;;2066373;28;20219;-69
2022/11/06 02:02:55;;;;;;;5.20;4.00;;;;;20.40;100421.00;;;;2083180;28;20248;-69
2022/11/06 02:04:00;;;;;;;4.93;4.13;;;;;20.40;100430.00;;;;2083912;28;20225;-69
2022/11/06 02:05:00;;;;;;;5.03;3.97;;;;;20.40;100420.00;;;;2076588;28;20214;-69
2022/11/06 02:06:01;;;;;;;5.17;3.80;;;;;20.50;100398.00;;;;2083644;28;20209;-69
2022/11/06 02:07:01;;;;;;;5.67;3.77;;;;;20.50;100402.00;;;;2083335;28;20197;-69
2022/11/06 02:08:01;;;;;;;4.67;3.67;;;;;20.40;100418.00;;;;2074751;28;20256;-69
2022/11/06 02:09:02;;;;;;;5.33;4.30;;;;;20.40;100420.00;;;;2074924;28;20243;-69
2022/11/06 02:10:03;;;;;;;6.20;3.77;;;;;20.40;100420.00;;;;2066410;28;20297;-69
2022/11/06 02:11:03;;;;;;;4.50;3.73;;;;;20.50;100421.00;;;;2078527;28;20213;-69
2022/11/06 02:12:17;;;;;;;3.37;2.83;;;;;20.40;100421.00;;;;2084385;28;20210;-69
2022/11/06 02:13:20;;;;;;;5.78;3.70;;;;;20.40;100427.00;;;;2083659;28;20209;-69
2022/11/06 02:14:26;;;;;;;3.65;3.20;;;;;20.40;100413.00;;;;2075130;28;20221;-69
2022/11/06 02:15:42;;;;;;;3.67;3.28;;;;;20.40;100427.00;;;;2082678;28;20733;-69
2022/11/06 02:16:51;;;;;;;4.38;3.72;;;;;20.40;100409.00;;;;2085453;28;20323;-69
2022/11/06 02:18:28;;;;;;;3.97;3.50;;;;;20.40;100443.00;;;;2083625;28;20364;-69
2022/11/06 02:19:48;;;;;;;4.15;3.00;;;;;20.40;100429.00;;;;2063069;28;20215;-69
2022/11/06 02:21:35;;;;;;;4.60;3.60;;;;;20.40;100432.00;;;;2085582;28;20212;-69
2022/11/06 02:22:35;;;;;;;4.07;3.00;;;;;20.40;100426.00;;;;2060582;28;20306;-69
2022/11/06 02:24:01;;;;;;;3.10;2.70;;;;;20.40;100415.00;;;;2084319;28;20221;-69
2022/11/06 02:25:38;;;;;;;4.20;3.25;;;;;20.40;100419.00;;;;2083210;28;20263;-69
2022/11/06 02:27:01;;;;;;;4.32;3.30;;;;;20.40;100415.00;;;;2082964;28;20602;-69
2022/11/06 02:28:10;;;;;;;5.05;3.17;;;;;20.40;100419.00;;;;2083542;28;20231;-69
2022/11/06 02:29:16;;;;;;;3.47;2.70;;;;;20.40;100425.00;;;;2074877;28;20669;-69
2022/11/06 02:30:16;;;;;;;4.65;2.95;;;;;20.40;100410.00;;;;2059884;28;20667;-69
2022/11/06 02:31:19;;;;;;;4.50;3.37;;;;;20.40;100417.00;;;;2058891;28;20246;-69
2022/11/06 02:32:23;;;;;;;2.85;2.58;;;;;20.40;100425.00;;;;2067231;28;20226;-69
2022/11/06 02:33:27;;;;;;;3.30;2.38;;;;;20.40;100421.00;;;;2066936;28;20234;-69
2022/11/06 02:34:28;;;;;;;3.25;2.90;;;;;20.40;100420.00;;;;2071305;28;20218;-69
2022/11/06 02:35:42;;;;;;;4.40;3.03;;;;;20.40;100419.00;;;;2083914;28;20248;-69
2022/11/06 02:37:10;;;;;;;3.20;2.60;;;;;20.40;100420.00;;;;2075538;28;20209;-69
2022/11/06 02:38:13;;;;;;;5.45;3.35;;;;;20.40;100418.00;;;;2075413;28;20219;-69
2022/11/06 02:39:14;;;;;;;4.35;2.85;;;;;20.40;100414.00;;;;2074895;28;20514;-69
2022/11/06 02:40:15;;;;;;;2.72;2.53;;;;;20.40;100404.00;;;;2071332;28;20225;-69
2022/11/06 02:41:18;;;;;;;4.47;2.83;;;;;20.40;100415.00;;;;2083547;28;20527;-69
2022/11/06 02:42:18;;;;;;;4.53;3.40;;;;;20.30;100387.00;;;;2082457;28;20217;-69
2022/11/06 02:43:19;;;;;;;3.20;2.67;;;;;20.30;100419.00;;;;2083164;28;20208;-69
2022/11/06 02:44:22;;;;;;;3.97;2.90;;;;;20.40;100410.00;;;;2074831;28;20226;-69
2022/11/06 02:45:22;;;;;;;3.60;2.85;;;;;20.40;100417.00;;;;2082868;28;20247;-70
2022/11/06 02:46:34;;;;;;;3.40;2.80;;;;;20.40;100413.00;;;;2083011;28;20708;-69
2022/11/06 02:47:34;;;;;;;3.97;2.45;;;;;20.30;100415.00;;;;2078280;28;20475;-69
2022/11/06 02:48:41;;;;;;;3.27;2.50;;;;;20.30;100396.00;;;;2092102;28;20685;-69
2022/11/06 02:49:47;;;;;;;3.38;2.85;;;;;20.30;100392.00;;;;2083918;28;20220;-69
2022/11/06 02:50:48;;;;;;;5.28;2.80;;;;;20.30;100400.00;;;;2086349;28;20212;-69
2022/11/06 02:51:50;;;;;;;3.07;2.47;;;;;20.30;100407.00;;;;2066409;28;20315;-69
2022/11/06 02:53:08;;;;;;;2.55;2.33;;;;;20.30;100417.00;;;;2067082;28;20582;-69
2022/11/06 02:54:09;;;;;;;4.00;2.90;;;;;20.40;100407.00;;;;2079584;28;20224;-69
2022/11/06 02:55:13;;;;;;;2.90;2.50;;;;;20.30;100410.00;;;;2071203;28;20772;-69
2022/11/06 02:56:15;;;;;;;4.60;2.90;;;;;20.30;100410.00;;;;2075969;28;20210;-69
2022/11/06 02:57:16;;;;;;;4.07;2.70;;;;;20.30;100404.00;;;;2082765;28;20233;-69
2022/11/06 02:58:19;;;;;;;3.33;2.40;;;;;20.30;100401.00;;;;2082968;28;20209;-69
2022/11/06 02:59:24;;;;;;;3.78;2.70;;;;;20.40;100400.00;;;;2074873;28;20309;-69
2022/11/06 03:00:26;;;;;;;3.30;2.38;;;;;20.30;100396.00;;;;2060087;28;20214;-69
2022/11/06 03:01:35;;;;;;;3.20;2.10;;;;;20.30;100405.00;;;;2074248;28;20210;-69
2022/11/06 03:02:41;;;;;;;3.42;2.47;;;;;20.30;100396.00;;;;2075434;28;20217;-69
2022/11/06 03:03:46;;;;;;;3.42;2.50;;;;;20.30;100361.00;;;;2076105;28;20210;-69
2022/11/06 03:04:52;;;;;;;3.67;2.28;;;;;20.30;100389.00;;;;2073009;28;20240;-69
2022/11/06 03:05:55;;;;;;;4.85;3.08;;;;;20.30;100383.00;;;;2068479;28;20347;-69
2022/11/06 03:07:02;;;;;;;3.33;2.25;;;;;20.30;100383.00;;;;2066907;28;20249;-69
2022/11/06 03:08:19;;;;;;;3.90;2.35;;;;;20.30;100394.00;;;;2068078;28;20215;-68
2022/11/06 03:09:21;;;;;;;2.97;2.20;;;;;20.30;100381.00;;;;2082626;28;20216;-69
2022/11/06 03:10:22;;;;;;;2.83;2.55;;;;;20.30;100380.00;;;;2074571;28;20218;-69
2022/11/06 03:11:29;;;;;;;2.63;2.20;;;;;20.30;100378.00;;;;2074416;28;20288;-69
2022/11/06 03:13:00;;;;;;;3.00;2.30;;;;;20.30;100373.00;;;;2051186;28;20520;-69
2022/11/06 03:14:06;;;;;;;3.70;2.47;;;;;20.30;100380.00;;;;2060966;28;20319;-69
2022/11/06 03:15:33;;;;;;;2.67;2.08;;;;;20.30;100380.00;;;;2069106;28;20221;-69
2022/11/06 03:16:42;;;;;;;2.75;2.15;;;;;20.30;100391.00;;;;2081968;28;20221;-69
2022/11/06 03:17:50;;;;;;;3.72;2.00;;;;;20.30;100376.00;;;;2075489;28;20222;-69
2022/11/06 03:19:14;;;;;;;3.25;2.20;;;;;20.30;100365.00;;;;2083538;28;20213;-69
2022/11/06 03:20:22;;;;;;;2.67;2.15;;;;;20.30;100366.00;;;;2076524;28;20244;-69
2022/11/06 03:21:29;;;;;;;2.33;1.80;;;;;20.30;100360.00;;;;2066256;28;20284;-69
2022/11/06 03:22:40;;;;;;;2.85;2.00;;;;;20.30;100366.00;;;;2067519;28;20215;-69
2022/11/06 03:23:44;;;;;;;2.85;2.03;;;;;20.30;100350.00;;;;2061279;28;20766;-69
2022/11/06 03:24:47;;;;;;;2.60;2.40;;;;;20.30;100375.00;;;;2066979;28;20229;-69
2022/11/06 03:25:52;;;;;;;4.75;2.35;;;;;20.30;100367.00;;;;2067287;28;20238;-69
2022/11/06 03:26:52;;;;;;;3.38;2.30;;;;;20.30;100370.00;;;;2068503;28;20265;-69
2022/11/06 03:28:01;;;;;;;3.20;2.00;;;;;20.30;100375.00;;;;2083598;28;20605;-69
2022/11/06 03:29:09;;;;;;;2.40;2.00;;;;;20.30;100373.00;;;;2083088;28;20213;-68
2022/11/06 03:30:10;;;;;;;2.88;1.92;;;;;20.30;100384.00;;;;2082791;28;20280;-69
2022/11/06 03:31:13;;;;;;;4.65;2.15;;;;;20.30;100376.00;;;;2074766;28;20696;-70
2022/11/06 03:32:25;;;;;;;2.90;2.05;;;;;20.30;100366.00;;;;2075400;28;20213;-69
2022/11/06 03:33:37;;;;;;;2.28;1.63;;;;;20.30;100377.00;;;;2065927;28;20229;-69
2022/11/06 03:34:52;;;;;;;3.45;1.60;;;;;20.30;100379.00;;;;2065416;28;20215;-69
2022/11/06 03:36:09;;;;;;;2.45;1.95;;;;;20.20;100362.00;;;;2073643;28;20217;-69
2022/11/06 03:37:19;;;;;;;4.45;2.13;;;;;20.30;100358.00;;;;2077280;28;20287;-69
2022/11/06 03:38:31;;;;;;;2.83;1.73;;;;;20.30;100369.00;;;;2083604;28;20228;-69
2022/11/06 03:39:34;;;;;;;3.70;2.13;;;;;20.20;100363.00;;;;2065684;28;20256;-68
2022/11/06 03:40:36;;;;;;;2.50;2.00;;;;;20.20;100356.00;;;;2068400;28;20219;-69
2022/11/06 03:41:49;;;;;;;3.30;2.10;;;;;20.30;100366.00;;;;2067233;28;20230;-69
2022/11/06 03:42:49;;;;;;;3.15;2.03;;;;;20.30;100364.00;;;;2070237;28;20289;-69
2022/11/06 03:43:51;;;;;;;3.07;1.63;;;;;20.30;100371.00;;;;2067518;28;20214;-69
2022/11/06 03:44:54;;;;;;;2.90;2.10;;;;;20.30;100366.00;;;;2066442;28;20244;-69
2022/11/06 03:45:54;;;;;;;2.70;1.70;;;;;20.20;100382.00;;;;2082854;28;20220;-69
2022/11/06 03:46:59;;;;;;;4.23;2.30;;;;;20.20;100375.00;;;;2082579;28;20232;-69
2022/11/06 03:48:24;;;;;;;2.42;1.60;;;;;20.20;100366.00;;;;2066921;28;20661;-69
2022/11/06 03:49:30;;;;;;;1.60;1.50;;;;;20.20;100374.00;;;;2078645;28;20798;-69
2022/11/06 03:50:33;;;;;;;2.30;2.00;;;;;20.20;100379.00;;;;2080110;28;20214;-69
2022/11/06 03:51:40;;;;;;;3.50;1.70;;;;;20.20;100369.00;;;;2074354;28;20213;-69
2022/11/06 03:53:05;;;;;;;3.05;1.77;;;;;20.20;100379.00;;;;2079398;28;20678;-69
2022/11/06 03:54:07;;;;;;;2.70;1.80;;;;;20.20;100375.00;;;;2084808;28;20591;-69
2022/11/06 03:55:10;;;;;;;2.35;1.65;;;;;20.20;100383.00;;;;2083119;28;20240;-70
2022/11/06 03:56:27;;;;;;;3.10;1.77;;;;;20.20;100361.00;;;;2075413;28;20573;-70
2022/11/06 03:57:49;;;;;;;2.20;1.60;;;;;20.20;100387.00;;;;2078036;28;20228;-70
2022/11/06 03:58:49;;;;;;;1.92;1.50;;;;;20.20;100389.00;;;;2070262;28;20295;-70
2022/11/06 03:59:53;;;;;;;3.20;1.60;;;;;20.20;100377.00;;;;2074445;28;20232;-70
2022/11/06 04:00:53;;;;;;;3.03;1.90;;;;;20.20;100386.00;;;;2058949;28;20262;-69
2022/11/06 04:01:54;;;;;;;2.57;1.87;;;;;20.20;100378.00;;;;2058821;28;20281;-70
2022/11/06 04:03:05;;;;;;;3.07;1.80;;;;;20.20;100385.00;;;;2075110;28;20218;-69
2022/11/06 04:04:21;;;;;;;2.60;1.90;;;;;20.20;100389.00;;;;2075744;28;20228;-69
2022/11/06 04:05:21;;;;;;;2.40;2.00;;;;;20.20;100385.00;;;;2083074;28;20598;-70
2022/11/06 04:06:28;;;;;;;3.90;1.70;;;;;20.20;100389.00;;;;2067867;28;20215;-70
2022/11/06 04:07:32;;;;;;;1.95;1.70;;;;;20.20;100391.00;;;;2070236;28;20539;-70
2022/11/06 04:14:04;;;;;;;2.53;1.33;;;;;20.20;100380.00;;;;2057485;28;20646;-70
2022/11/06 04:15:05;;;;;;;3.72;1.50;;;;;20.20;100376.00;;;;2077757;28;20221;-69
2022/11/06 04:16:06;;;;;;;3.40;1.87;;;;;20.20;100359.00;;;;2068811;28;20241;-69
2022/11/06 04:17:09;;;;;;;2.35;1.60;;;;;20.20;100363.00;;;;2068488;28;20222;-69
2022/11/06 04:18:13;;;;;;;2.00;1.60;;;;;20.20;100376.00;;;;2067093;28;20214;-70
2022/11/06 04:19:20;;;;;;;3.08;2.00;;;;;20.20;100370.00;;;;2083735;28;20211;-70
2022/11/06 04:22:17;;;;;;;2.42;1.55;;;;;20.20;100363.00;;;;2083915;28;20664;-70
2022/11/06 04:27:21;;;;;;;2.35;1.30;;;;;20.20;100360.00;;;;2085607;28;20205;-69
2022/11/06 04:28:51;;;;;;;2.20;1.40;;;;;20.10;100369.00;;;;2079511;28;20248;-69
2022/11/06 04:30:13;;;;;;;2.20;1.63;;;;;20.20;100368.00;;;;2078465;28;20223;-69
2022/11/06 04:31:35;;;;;;;3.55;1.40;;;;;20.20;100368.00;;;;2085165;28;20216;-69
2022/11/06 04:32:57;;;;;;;1.95;1.50;;;;;20.20;100377.00;;;;2078411;28;20228;-69
2022/11/06 04:34:06;;;;;;;3.13;2.10;;;;;20.20;100372.00;;;;2084143;28;20220;-70
2022/11/06 04:35:18;;;;;;;2.63;1.55;;;;;20.20;100342.00;;;;2075852;28;20217;-69
2022/11/06 04:36:31;;;;;;;2.65;1.30;;;;;20.20;100349.00;;;;2071157;28;20745;-69
2022/11/06 04:37:33;;;;;;;2.90;1.40;;;;;20.10;100357.00;;;;2070246;28;20300;-70
2022/11/06 04:39:05;;;;;;;2.08;1.20;;;;;20.20;100355.00;;;;2077208;28;20209;-70
2022/11/06 04:40:09;;;;;;;2.58;1.25;;;;;20.10;100355.00;;;;2090448;28;20723;-70
2022/11/06 04:41:15;;;;;;;3.50;1.40;;;;;20.10;100360.00;;;;2084948;28;20217;-69
2022/11/06 04:42:17;;;;;;;2.65;1.50;;;;;20.10;100351.00;;;;2083742;28;20579;-70
2022/11/06 04:43:29;;;;;;;2.67;1.50;;;;;20.10;100354.00;;;;2083834;28;20247;-70
2022/11/06 04:44:32;;;;;;;1.40;1.13;;;;;20.10;100354.00;;;;2069180;28;20218;-70
2022/11/06 04:45:35;;;;;;;2.38;1.50;;;;;20.20;100346.00;;;;2061073;28;20700;-70
2022/11/06 04:46:47;;;;;;;1.60;1.50;;;;;20.10;100347.00;;;;2061133;28;20227;-70
2022/11/06 04:47:47;;;;;;;2.60;0.88;;;;;20.10;100245.00;;;;2071068;28;20221;-69
2022/11/06 04:48:48;;;;;;;1.60;1.27;;;;;20.10;100345.00;;;;2067779;28;20237;-70
2022/11/06 04:49:49;;;;;;;2.60;1.30;;;;;20.10;100344.00;;;;2075817;28;20291;-70
2022/11/06 04:50:53;;;;;;;2.35;1.40;;;;;20.10;100347.00;;;;2075855;28;20213;-69
2022/11/06 04:51:53;;;;;;;2.47;1.67;;;;;20.10;100335.00;;;;2060001;28;20221;-70
2022/11/06 04:52:54;;;;;;;3.00;1.70;;;;;20.10;100347.00;;;;2068030;28;20214;-70
2022/11/06 04:53:54;;;;;;;1.70;1.27;;;;;20.10;100349.00;;;;2067560;28;20308;-69
2022/11/06 04:54:55;;;;;;;1.67;1.50;;;;;20.10;100346.00;;;;2067390;28;20214;-69
2022/11/06 04:55:59;;;;;;;1.70;1.23;;;;;20.10;100351.00;;;;2068496;28;20226;-69
2022/11/06 04:56:59;;;;;;;2.33;1.30;;;;;20.10;100341.00;;;;2069439;28;20474;-69
2022/11/06 04:58:00;;;;;;;2.70;1.10;;;;;20.10;100343.00;;;;2076607;28;20233;-70
2022/11/06 04:59:00;;;;;;;3.40;1.67;;;;;20.10;100341.00;;;;2084245;28;20209;-70
2022/11/06 05:00:01;;;;;;;2.57;1.20;;;;;20.10;100333.00;;;;2084424;28;20239;-70
2022/11/06 05:01:01;;;;;;;1.80;1.33;;;;;20.10;100343.00;;;;2084401;28;20209;-70
2022/11/06 05:02:02;;;;;;;2.03;1.20;;;;;20.10;100336.00;;;;2082697;28;20244;-70
2022/11/06 05:03:02;;;;;;;2.03;1.20;;;;;20.10;100333.00;;;;2084721;28;20213;-69
2022/11/06 05:04:03;;;;;;;2.20;1.30;;;;;20.10;100331.00;;;;2085472;28;20227;-70
2022/11/06 05:05:03;;;;;;;1.90;1.13;;;;;20.10;100322.00;;;;2085115;28;20213;-70
2022/11/06 05:06:04;;;;;;;2.60;1.53;;;;;20.10;100333.00;;;;2085450;28;20216;-70
2022/11/06 05:07:04;;;;;;;2.47;1.30;;;;;20.10;100330.00;;;;2085463;28;20216;-70
2022/11/06 05:08:05;;;;;;;3.73;1.27;;;;;20.10;100308.00;;;;2084650;28;20213;-70
2022/11/06 05:09:05;;;;;;;2.60;1.20;;;;;20.10;100307.00;;;;2076936;28;20278;-70
2022/11/06 05:10:05;;;;;;;3.70;1.30;;;;;20.10;100311.00;;;;2084572;28;20220;-69
2022/11/06 05:11:06;;;;;;;3.57;1.10;;;;;20.10;100310.00;;;;2088218;28;20220;-70
2022/11/06 05:12:06;;;;;;;2.13;1.13;;;;;20.10;100309.00;;;;2088142;28;20302;-69
2022/11/06 05:13:06;;;;;;;1.43;1.07;;;;;20.10;100308.00;;;;2084506;28;20237;-70
2022/11/06 05:14:07;;;;;;;2.27;1.30;;;;;20.10;100303.00;;;;2084972;28;20220;-70
2022/11/06 05:15:07;;;;;;;1.87;1.10;;;;;20.10;100308.00;;;;2085165;28;20216;-70
2022/11/06 05:16:08;;;;;;;3.10;1.37;;;;;20.10;100292.00;;;;2084735;28;20219;-70
2022/11/06 05:17:08;;;;;;;2.00;1.33;;;;;20.10;100298.00;;;;2083258;28;20213;-70
2022/11/06 05:18:08;;;;;;;2.00;1.23;;;;;20.00;100288.00;;;;2086748;28;20215;-70
2022/11/06 05:19:09;;;;;;;2.37;1.30;;;;;20.00;100290.00;;;;2085206;28;20311;-70
2022/11/06 05:20:09;;;;;;;3.40;1.50;;;;;20.10;100297.00;;;;2084779;28;20227;-70
2022/11/06 05:23:47;;;;;;;2.30;1.42;;;;;20.10;100291.00;;;;2084254;28;20296;-69
2022/11/06 05:24:47;;;;;;;2.70;1.10;;;;;20.10;100288.00;;;;2083685;28;20284;-69
2022/11/06 05:25:48;;;;;;;2.30;1.30;;;;;20.10;100285.00;;;;2083997;28;20295;-69
2022/11/06 05:26:48;;;;;;;1.60;1.00;;;;;20.10;100285.00;;;;2083578;28;20216;-70
2022/11/06 05:27:48;;;;;;;3.07;1.47;;;;;20.10;100281.00;;;;2084330;28;20220;-69
2022/11/06 05:28:49;;;;;;;1.93;1.00;;;;;20.10;100278.00;;;;2084822;28;20245;-69
2022/11/06 05:29:49;;;;;;;2.23;1.30;;;;;20.10;100284.00;;;;2084639;28;20206;-69
2022/11/06 05:30:49;;;;;;;1.93;1.10;;;;;20.10;100290.00;;;;2084881;28;20235;-70
2022/11/06 05:31:50;;;;;;;2.10;1.00;;;;;20.10;100286.00;;;;2075195;28;20251;-69